sensor_id;sensor_type;location;lat;lon;timestamp;temperature;humidity
55091;DHT22;40985;53.180;5.800;2023-05-08T00:00:19;12.00;99.90
55091;DHT22;40985;53.180;5.800;2023-05-08T00:02:45;11.90;99.90
55091;DHT22;40985;53.180;5.800;2023-05-08T00:05:10;11.90;99.90
55091;DHT22;40985;53.180;5.800;2023-05-08T00:07:36;11.80;99.90
55091;DHT22;40985;53.180;5.800;2023-05-08T00:10:03;11.80;99.90
55091;DHT22;40985;53.180;5.800;2023-05-08T00:12:30;11.80;99.90
55091;DHT22;40985;53.180;5.800;2023-05-08T00:14:55;11.70;99.90
55091;DHT22;40985;53.180;5.800;2023-05-08T00:17:21;11.70;99.90
55091;DHT22;40985;53.180;5.800;2023-05-08T00:19:47;11.70;99.90
55091;DHT22;40985;53.180;5.800;2023-05-08T00:22:13;11.70;99.90
55091;DHT22;40985;53.180;5.800;2023-05-08T00:24:38;11.60;99.90
55091;DHT22;40985;53.180;5.800;2023-05-08T00:27:04;11.60;99.90
55091;DHT22;40985;53.180;5.800;2023-05-08T00:29:30;11.60;99.90
55091;DHT22;40985;53.180;5.800;2023-05-08T00:31:55;11.60;99.90
55091;DHT22;40985;53.180;5.800;2023-05-08T00:34:21;11.50;99.90
55091;DHT22;40985;53.180;5.800;2023-05-08T00:36:47;11.40;99.90
55091;DHT22;40985;53.180;5.800;2023-05-08T00:39:12;11.40;99.90
55091;DHT22;40985;53.180;5.800;2023-05-08T00:41:38;11.40;99.90
55091;DHT22;40985;53.180;5.800;2023-05-08T00:44:04;11.40;99.90
55091;DHT22;40985;53.180;5.800;2023-05-08T00:46:30;11.40;99.90
55091;DHT22;40985;53.180;5.800;2023-05-08T00:48:55;11.30;99.90
55091;DHT22;40985;53.180;5.800;2023-05-08T00:51:22;11.30;99.90
55091;DHT22;40985;53.180;5.800;2023-05-08T00:53:48;11.30;99.90
55091;DHT22;40985;53.180;5.800;2023-05-08T00:56:15;11.20;99.90
55091;DHT22;40985;53.180;5.800;2023-05-08T00:58:42;11.20;99.90
55091;DHT22;40985;53.180;5.800;2023-05-08T01:01:08;11.20;99.90
55091;DHT22;40985;53.180;5.800;2023-05-08T01:03:35;11.10;99.90
55091;DHT22;40985;53.180;5.800;2023-05-08T01:06:03;11.10;99.90
55091;DHT22;40985;53.180;5.800;2023-05-08T01:08:30;11.10;99.90
55091;DHT22;40985;53.180;5.800;2023-05-08T01:14:19;11.10;99.90
55091;DHT22;40985;53.180;5.800;2023-05-08T01:17:11;11.00;99.90
55091;DHT22;40985;53.180;5.800;2023-05-08T01:31:15;10.90;99.90
55091;DHT22;40985;53.180;5.800;2023-05-08T01:33:55;10.80;99.90
55091;DHT22;40985;53.180;5.800;2023-05-08T01:36:49;10.80;99.90
55091;DHT22;40985;53.180;5.800;2023-05-08T01:39:53;10.80;99.90
55091;DHT22;40985;53.180;5.800;2023-05-08T01:45:13;10.80;99.90
55091;DHT22;40985;53.180;5.800;2023-05-08T01:47:41;10.80;99.90
55091;DHT22;40985;53.180;5.800;2023-05-08T01:50:17;10.80;99.90
55091;DHT22;40985;53.180;5.800;2023-05-08T01:52:48;10.80;99.90
55091;DHT22;40985;53.180;5.800;2023-05-08T01:55:20;10.70;99.90
55091;DHT22;40985;53.180;5.800;2023-05-08T01:57:51;10.70;99.90
55091;DHT22;40985;53.180;5.800;2023-05-08T02:00:21;10.70;99.90
55091;DHT22;40985;53.180;5.800;2023-05-08T02:02:48;10.70;99.90
55091;DHT22;40985;53.180;5.800;2023-05-08T02:05:16;10.60;99.90
55091;DHT22;40985;53.180;5.800;2023-05-08T02:07:43;10.60;99.90
55091;DHT22;40985;53.180;5.800;2023-05-08T02:10:11;10.60;99.90
55091;DHT22;40985;53.180;5.800;2023-05-08T02:12:39;10.60;99.90
55091;DHT22;40985;53.180;5.800;2023-05-08T02:15:07;10.60;99.90
55091;DHT22;40985;53.180;5.800;2023-05-08T02:17:35;10.70;99.90
55091;DHT22;40985;53.180;5.800;2023-05-08T02:20:02;10.70;99.90
55091;DHT22;40985;53.180;5.800;2023-05-08T02:22:30;10.60;99.90
55091;DHT22;40985;53.180;5.800;2023-05-08T02:24:57;10.60;99.90
55091;DHT22;40985;53.180;5.800;2023-05-08T02:27:27;10.60;99.90
55091;DHT22;40985;53.180;5.800;2023-05-08T02:29:54;10.60;99.90
55091;DHT22;40985;53.180;5.800;2023-05-08T02:32:21;10.60;99.90
55091;DHT22;40985;53.180;5.800;2023-05-08T02:34:48;10.60;99.90
55091;DHT22;40985;53.180;5.800;2023-05-08T02:37:17;10.60;99.90
55091;DHT22;40985;53.180;5.800;2023-05-08T02:39:46;10.50;99.90
55091;DHT22;40985;53.180;5.800;2023-05-08T02:42:12;10.50;99.90
55091;DHT22;40985;53.180;5.800;2023-05-08T02:44:38;10.50;99.90
55091;DHT22;40985;53.180;5.800;2023-05-08T02:47:07;10.50;99.90
55091;DHT22;40985;53.180;5.800;2023-05-08T02:50:02;10.40;99.90
55091;DHT22;40985;53.180;5.800;2023-05-08T02:52:33;10.40;99.90
55091;DHT22;40985;53.180;5.800;2023-05-08T02:55:48;10.40;99.90
55091;DHT22;40985;53.180;5.800;2023-05-08T02:58:16;10.40;99.90
55091;DHT22;40985;53.180;5.800;2023-05-08T03:01:04;10.40;99.90
55091;DHT22;40985;53.180;5.800;2023-05-08T03:03:36;10.40;99.90
55091;DHT22;40985;53.180;5.800;2023-05-08T03:06:08;10.30;99.90
55091;DHT22;40985;53.180;5.800;2023-05-08T03:08:36;10.30;99.90
55091;DHT22;40985;53.180;5.800;2023-05-08T03:11:07;10.30;99.90
55091;DHT22;40985;53.180;5.800;2023-05-08T03:13:34;10.20;99.90
55091;DHT22;40985;53.180;5.800;2023-05-08T03:16:02;10.20;99.90
55091;DHT22;40985;53.180;5.800;2023-05-08T03:19:02;10.20;99.90
55091;DHT22;40985;53.180;5.800;2023-05-08T03:21:30;10.20;99.90
55091;DHT22;40985;53.180;5.800;2023-05-08T03:23:59;10.20;99.90
55091;DHT22;40985;53.180;5.800;2023-05-08T03:26:26;10.10;99.90
55091;DHT22;40985;53.180;5.800;2023-05-08T03:28:53;10.10;99.90
55091;DHT22;40985;53.180;5.800;2023-05-08T03:31:21;10.10;99.90
55091;DHT22;40985;53.180;5.800;2023-05-08T03:33:51;10.10;99.90
55091;DHT22;40985;53.180;5.800;2023-05-08T03:36:18;10.00;99.90
55091;DHT22;40985;53.180;5.800;2023-05-08T03:38:44;10.10;99.90
55091;DHT22;40985;53.180;5.800;2023-05-08T03:41:11;10.00;99.90
55091;DHT22;40985;53.180;5.800;2023-05-08T03:43:37;10.00;99.90
55091;DHT22;40985;53.180;5.800;2023-05-08T03:46:06;10.00;99.90
55091;DHT22;40985;53.180;5.800;2023-05-08T03:48:33;10.00;99.90
55091;DHT22;40985;53.180;5.800;2023-05-08T03:51:03;9.90;99.90
55091;DHT22;40985;53.180;5.800;2023-05-08T03:53:30;9.90;99.90
55091;DHT22;40985;53.180;5.800;2023-05-08T03:55:56;9.90;99.90
55091;DHT22;40985;53.180;5.800;2023-05-08T04:01:12;9.80;99.90
55091;DHT22;40985;53.180;5.800;2023-05-08T04:06:28;9.80;99.90
55091;DHT22;40985;53.180;5.800;2023-05-08T04:14:42;9.70;99.90
55091;DHT22;40985;53.180;5.800;2023-05-08T04:17:09;9.70;99.90
55091;DHT22;40985;53.180;5.800;2023-05-08T04:19:39;9.80;99.90
55091;DHT22;40985;53.180;5.800;2023-05-08T04:22:07;9.70;99.90
55091;DHT22;40985;53.180;5.800;2023-05-08T04:24:41;9.80;99.90
55091;DHT22;40985;53.180;5.800;2023-05-08T04:27:08;9.70;99.90
55091;DHT22;40985;53.180;5.800;2023-05-08T04:29:34;9.80;99.90
55091;DHT22;40985;53.180;5.800;2023-05-08T04:32:00;9.80;99.90
55091;DHT22;40985;53.180;5.800;2023-05-08T04:34:28;9.80;99.90
55091;DHT22;40985;53.180;5.800;2023-05-08T04:36:53;9.80;99.90
55091;DHT22;40985;53.180;5.800;2023-05-08T04:39:19;9.90;99.90
55091;DHT22;40985;53.180;5.800;2023-05-08T04:41:46;9.90;99.90
55091;DHT22;40985;53.180;5.800;2023-05-08T04:44:13;9.90;99.90
55091;DHT22;40985;53.180;5.800;2023-05-08T04:46:39;9.90;99.90
55091;DHT22;40985;53.180;5.800;2023-05-08T04:49:04;9.90;99.90
55091;DHT22;40985;53.180;5.800;2023-05-08T04:51:30;9.90;99.90
55091;DHT22;40985;53.180;5.800;2023-05-08T04:53:56;9.90;99.90
55091;DHT22;40985;53.180;5.800;2023-05-08T04:56:22;10.00;99.90
55091;DHT22;40985;53.180;5.800;2023-05-08T04:58:47;10.00;99.90
55091;DHT22;40985;53.180;5.800;2023-05-08T05:01:13;10.00;99.90
55091;DHT22;40985;53.180;5.800;2023-05-08T05:03:39;10.10;99.90
55091;DHT22;40985;53.180;5.800;2023-05-08T05:06:04;10.10;99.90
55091;DHT22;40985;53.180;5.800;2023-05-08T05:08:30;10.20;99.90
55091;DHT22;40985;53.180;5.800;2023-05-08T05:10:56;10.20;99.90
55091;DHT22;40985;53.180;5.800;2023-05-08T05:13:21;10.20;99.90
55091;DHT22;40985;53.180;5.800;2023-05-08T05:15:47;10.30;99.90
55091;DHT22;40985;53.180;5.800;2023-05-08T05:18:15;10.40;99.90
55091;DHT22;40985;53.180;5.800;2023-05-08T05:20:41;10.40;99.90
55091;DHT22;40985;53.180;5.800;2023-05-08T05:23:07;10.50;99.90
55091;DHT22;40985;53.180;5.800;2023-05-08T05:25:33;10.50;99.90
55091;DHT22;40985;53.180;5.800;2023-05-08T05:27:59;10.50;99.90
55091;DHT22;40985;53.180;5.800;2023-05-08T05:30:25;10.50;99.90
55091;DHT22;40985;53.180;5.800;2023-05-08T05:32:50;10.60;99.90
55091;DHT22;40985;53.180;5.800;2023-05-08T05:35:16;10.60;99.90
55091;DHT22;40985;53.180;5.800;2023-05-08T05:37:42;10.60;99.90
55091;DHT22;40985;53.180;5.800;2023-05-08T05:40:08;10.70;99.90
55091;DHT22;40985;53.180;5.800;2023-05-08T05:42:33;10.70;99.90
55091;DHT22;40985;53.180;5.800;2023-05-08T05:44:59;10.70;99.90
55091;DHT22;40985;53.180;5.800;2023-05-08T05:47:26;10.80;99.90
55091;DHT22;40985;53.180;5.800;2023-05-08T05:49:52;10.80;99.90
55091;DHT22;40985;53.180;5.800;2023-05-08T05:52:17;10.90;99.90
55091;DHT22;40985;53.180;5.800;2023-05-08T05:54:43;10.90;99.90
55091;DHT22;40985;53.180;5.800;2023-05-08T05:57:10;11.00;99.90
55091;DHT22;40985;53.180;5.800;2023-05-08T05:59:38;11.00;99.90
55091;DHT22;40985;53.180;5.800;2023-05-08T06:02:04;11.10;99.90
55091;DHT22;40985;53.180;5.800;2023-05-08T06:04:30;11.10;99.90
55091;DHT22;40985;53.180;5.800;2023-05-08T06:06:55;11.10;99.90
55091;DHT22;40985;53.180;5.800;2023-05-08T06:09:21;11.20;99.90
55091;DHT22;40985;53.180;5.800;2023-05-08T06:11:47;11.20;99.90
55091;DHT22;40985;53.180;5.800;2023-05-08T06:14:12;11.30;99.90
55091;DHT22;40985;53.180;5.800;2023-05-08T06:16:38;11.30;99.90
55091;DHT22;40985;53.180;5.800;2023-05-08T06:19:04;11.30;99.90
55091;DHT22;40985;53.180;5.800;2023-05-08T06:21:29;11.40;99.90
55091;DHT22;40985;53.180;5.800;2023-05-08T06:23:55;11.50;99.90
55091;DHT22;40985;53.180;5.800;2023-05-08T06:26:21;11.50;99.90
55091;DHT22;40985;53.180;5.800;2023-05-08T06:28:47;11.50;99.90
55091;DHT22;40985;53.180;5.800;2023-05-08T06:31:13;11.60;99.90
55091;DHT22;40985;53.180;5.800;2023-05-08T06:33:38;11.70;99.90
55091;DHT22;40985;53.180;5.800;2023-05-08T06:36:05;11.70;99.90
55091;DHT22;40985;53.180;5.800;2023-05-08T06:38:31;11.80;99.90
55091;DHT22;40985;53.180;5.800;2023-05-08T06:40:56;11.90;99.90
55091;DHT22;40985;53.180;5.800;2023-05-08T06:43:22;11.90;99.90
55091;DHT22;40985;53.180;5.800;2023-05-08T06:45:48;11.90;99.90
55091;DHT22;40985;53.180;5.800;2023-05-08T06:48:14;12.00;99.90
55091;DHT22;40985;53.180;5.800;2023-05-08T06:50:39;12.00;99.90
55091;DHT22;40985;53.180;5.800;2023-05-08T06:53:06;12.10;99.90
55091;DHT22;40985;53.180;5.800;2023-05-08T06:55:32;12.20;99.90
55091;DHT22;40985;53.180;5.800;2023-05-08T06:57:58;12.20;99.90
55091;DHT22;40985;53.180;5.800;2023-05-08T07:00:24;12.30;99.90
55091;DHT22;40985;53.180;5.800;2023-05-08T07:02:50;12.40;99.90
55091;DHT22;40985;53.180;5.800;2023-05-08T07:05:16;12.40;99.90
55091;DHT22;40985;53.180;5.800;2023-05-08T07:07:42;12.40;99.90
55091;DHT22;40985;53.180;5.800;2023-05-08T07:10:08;12.50;99.90
55091;DHT22;40985;53.180;5.800;2023-05-08T07:12:34;12.60;99.90
55091;DHT22;40985;53.180;5.800;2023-05-08T07:15:00;12.70;99.90
55091;DHT22;40985;53.180;5.800;2023-05-08T07:17:25;12.80;99.90
55091;DHT22;40985;53.180;5.800;2023-05-08T07:19:51;12.80;99.90
55091;DHT22;40985;53.180;5.800;2023-05-08T07:22:17;12.90;99.90
55091;DHT22;40985;53.180;5.800;2023-05-08T07:24:42;13.00;99.90
55091;DHT22;40985;53.180;5.800;2023-05-08T07:27:08;13.10;99.90
55091;DHT22;40985;53.180;5.800;2023-05-08T07:29:34;13.10;99.90
55091;DHT22;40985;53.180;5.800;2023-05-08T07:32:00;13.10;99.90
55091;DHT22;40985;53.180;5.800;2023-05-08T07:34:26;13.20;99.90
55091;DHT22;40985;53.180;5.800;2023-05-08T07:36:52;13.30;99.90
55091;DHT22;40985;53.180;5.800;2023-05-08T07:39:18;13.40;99.90
55091;DHT22;40985;53.180;5.800;2023-05-08T07:41:44;13.50;99.90
55091;DHT22;40985;53.180;5.800;2023-05-08T07:44:10;13.60;99.90
55091;DHT22;40985;53.180;5.800;2023-05-08T07:46:36;13.50;99.90
55091;DHT22;40985;53.180;5.800;2023-05-08T07:49:02;13.50;99.90
55091;DHT22;40985;53.180;5.800;2023-05-08T07:51:28;13.50;99.90
55091;DHT22;40985;53.180;5.800;2023-05-08T07:53:53;13.50;99.90
55091;DHT22;40985;53.180;5.800;2023-05-08T07:56:20;13.50;99.90
55091;DHT22;40985;53.180;5.800;2023-05-08T07:58:47;13.50;99.90
55091;DHT22;40985;53.180;5.800;2023-05-08T08:01:13;13.60;99.90
55091;DHT22;40985;53.180;5.800;2023-05-08T08:03:38;13.60;99.90
55091;DHT22;40985;53.180;5.800;2023-05-08T08:06:04;13.60;99.90
55091;DHT22;40985;53.180;5.800;2023-05-08T08:08:30;13.60;99.90
55091;DHT22;40985;53.180;5.800;2023-05-08T08:10:55;13.60;99.90
55091;DHT22;40985;53.180;5.800;2023-05-08T08:13:21;13.70;99.90
55091;DHT22;40985;53.180;5.800;2023-05-08T08:15:47;13.80;99.90
55091;DHT22;40985;53.180;5.800;2023-05-08T08:18:12;13.90;99.90
55091;DHT22;40985;53.180;5.800;2023-05-08T08:20:38;14.00;99.90
55091;DHT22;40985;53.180;5.800;2023-05-08T08:23:04;14.20;99.90
55091;DHT22;40985;53.180;5.800;2023-05-08T08:25:30;14.30;99.90
55091;DHT22;40985;53.180;5.800;2023-05-08T08:27:56;14.50;99.90
55091;DHT22;40985;53.180;5.800;2023-05-08T08:30:22;14.50;99.90
55091;DHT22;40985;53.180;5.800;2023-05-08T08:32:48;14.60;99.90
55091;DHT22;40985;53.180;5.800;2023-05-08T08:35:14;14.70;99.90
55091;DHT22;40985;53.180;5.800;2023-05-08T08:37:41;14.80;99.90
55091;DHT22;40985;53.180;5.800;2023-05-08T08:40:07;14.90;99.90
55091;DHT22;40985;53.180;5.800;2023-05-08T08:42:33;15.00;99.90
55091;DHT22;40985;53.180;5.800;2023-05-08T08:44:59;15.20;99.90
55091;DHT22;40985;53.180;5.800;2023-05-08T08:47:34;15.30;99.90
55091;DHT22;40985;53.180;5.800;2023-05-08T08:50:02;15.30;99.90
55091;DHT22;40985;53.180;5.800;2023-05-08T08:52:38;15.50;99.90
55091;DHT22;40985;53.180;5.800;2023-05-08T08:55:08;15.60;99.90
55091;DHT22;40985;53.180;5.800;2023-05-08T08:57:36;15.80;99.90
55091;DHT22;40985;53.180;5.800;2023-05-08T09:00:06;15.90;99.90
55091;DHT22;40985;53.180;5.800;2023-05-08T09:02:33;16.00;99.90
55091;DHT22;40985;53.180;5.800;2023-05-08T09:05:00;16.00;99.90
55091;DHT22;40985;53.180;5.800;2023-05-08T09:07:26;16.20;99.90
55091;DHT22;40985;53.180;5.800;2023-05-08T09:09:54;16.20;99.90
55091;DHT22;40985;53.180;5.800;2023-05-08T09:12:20;16.30;99.90
55091;DHT22;40985;53.180;5.800;2023-05-08T09:14:46;16.50;99.90
55091;DHT22;40985;53.180;5.800;2023-05-08T09:17:12;16.50;99.90
55091;DHT22;40985;53.180;5.800;2023-05-08T09:19:37;16.60;99.90
55091;DHT22;40985;53.180;5.800;2023-05-08T09:22:03;16.60;99.90
55091;DHT22;40985;53.180;5.800;2023-05-08T09:24:59;16.80;99.90
55091;DHT22;40985;53.180;5.800;2023-05-08T09:27:27;17.00;99.90
55091;DHT22;40985;53.180;5.800;2023-05-08T09:32:32;17.20;99.90
55091;DHT22;40985;53.180;5.800;2023-05-08T09:34:58;17.30;99.90
55091;DHT22;40985;53.180;5.800;2023-05-08T09:37:25;17.40;99.90
55091;DHT22;40985;53.180;5.800;2023-05-08T09:39:51;17.40;99.90
55091;DHT22;40985;53.180;5.800;2023-05-08T09:42:17;17.40;99.90
55091;DHT22;40985;53.180;5.800;2023-05-08T09:44:50;17.60;99.90
55091;DHT22;40985;53.180;5.800;2023-05-08T09:47:23;17.70;99.90
55091;DHT22;40985;53.180;5.800;2023-05-08T09:50:02;17.80;99.90
55091;DHT22;40985;53.180;5.800;2023-05-08T09:52:29;17.90;99.90
55091;DHT22;40985;53.180;5.800;2023-05-08T09:55:00;18.00;99.90
55091;DHT22;40985;53.180;5.800;2023-05-08T09:57:27;18.00;99.90
55091;DHT22;40985;53.180;5.800;2023-05-08T10:00:12;18.00;99.90
55091;DHT22;40985;53.180;5.800;2023-05-08T10:02:39;18.10;99.90
55091;DHT22;40985;53.180;5.800;2023-05-08T10:05:23;18.30;99.90
55091;DHT22;40985;53.180;5.800;2023-05-08T10:07:49;18.20;99.90
55091;DHT22;40985;53.180;5.800;2023-05-08T10:10:24;18.50;99.90
55091;DHT22;40985;53.180;5.800;2023-05-08T10:12:51;18.60;99.90
55091;DHT22;40985;53.180;5.800;2023-05-08T10:15:18;18.80;99.90
55091;DHT22;40985;53.180;5.800;2023-05-08T10:18:01;18.80;99.90
55091;DHT22;40985;53.180;5.800;2023-05-08T10:20:29;19.00;99.90
55091;DHT22;40985;53.180;5.800;2023-05-08T10:22:56;18.90;99.90
55091;DHT22;40985;53.180;5.800;2023-05-08T10:25:23;19.10;99.90
55091;DHT22;40985;53.180;5.800;2023-05-08T10:30:45;19.30;99.90
55091;DHT22;40985;53.180;5.800;2023-05-08T10:33:14;19.40;99.90
55091;DHT22;40985;53.180;5.800;2023-05-08T10:35:40;19.50;99.90
55091;DHT22;40985;53.180;5.800;2023-05-08T10:38:10;19.60;99.90
55091;DHT22;40985;53.180;5.800;2023-05-08T10:40:37;19.80;99.90
55091;DHT22;40985;53.180;5.800;2023-05-08T10:43:03;19.80;99.90
55091;DHT22;40985;53.180;5.800;2023-05-08T10:45:30;20.00;99.90
55091;DHT22;40985;53.180;5.800;2023-05-08T10:53:38;20.40;99.90
55091;DHT22;40985;53.180;5.800;2023-05-08T10:56:04;20.50;99.90
55091;DHT22;40985;53.180;5.800;2023-05-08T10:58:32;20.80;99.90
55091;DHT22;40985;53.180;5.800;2023-05-08T11:03:36;20.80;99.90
55091;DHT22;40985;53.180;5.800;2023-05-08T11:06:03;21.00;99.90
55091;DHT22;40985;53.180;5.800;2023-05-08T11:08:30;20.80;99.90
55091;DHT22;40985;53.180;5.800;2023-05-08T11:13:40;21.40;99.90
55091;DHT22;40985;53.180;5.800;2023-05-08T11:16:07;21.70;99.90
55091;DHT22;40985;53.180;5.800;2023-05-08T11:18:36;21.60;99.90
55091;DHT22;40985;53.180;5.800;2023-05-08T11:21:04;21.50;99.90
55091;DHT22;40985;53.180;5.800;2023-05-08T11:23:35;21.40;99.90
55091;DHT22;40985;53.180;5.800;2023-05-08T11:26:06;21.60;99.90
55091;DHT22;40985;53.180;5.800;2023-05-08T11:28:38;21.40;99.90
55091;DHT22;40985;53.180;5.800;2023-05-08T11:31:05;21.40;99.90
55091;DHT22;40985;53.180;5.800;2023-05-08T11:33:35;21.40;99.90
55091;DHT22;40985;53.180;5.800;2023-05-08T11:36:15;21.20;99.90
55091;DHT22;40985;53.180;5.800;2023-05-08T11:38:42;21.40;99.90
55091;DHT22;40985;53.180;5.800;2023-05-08T11:41:22;21.50;99.90
55091;DHT22;40985;53.180;5.800;2023-05-08T11:48:57;21.50;99.90
55091;DHT22;40985;53.180;5.800;2023-05-08T11:51:30;21.60;99.90
55091;DHT22;40985;53.180;5.800;2023-05-08T11:53:58;21.90;99.90
55091;DHT22;40985;53.180;5.800;2023-05-08T11:56:23;21.80;99.90
55091;DHT22;40985;53.180;5.800;2023-05-08T11:59:03;21.90;99.90
55091;DHT22;40985;53.180;5.800;2023-05-08T12:01:31;22.00;99.90
55091;DHT22;40985;53.180;5.800;2023-05-08T12:04:09;22.00;99.90
55091;DHT22;40985;53.180;5.800;2023-05-08T12:06:36;22.00;99.90
55091;DHT22;40985;53.180;5.800;2023-05-08T12:09:08;22.10;99.90
55091;DHT22;40985;53.180;5.800;2023-05-08T12:11:34;22.10;99.90
55091;DHT22;40985;53.180;5.800;2023-05-08T12:14:00;22.00;99.90
55091;DHT22;40985;53.180;5.800;2023-05-08T12:16:26;22.10;99.90
55091;DHT22;40985;53.180;5.800;2023-05-08T12:18:52;22.10;99.90
55091;DHT22;40985;53.180;5.800;2023-05-08T12:21:20;22.00;99.90
55091;DHT22;40985;53.180;5.800;2023-05-08T12:23:46;21.80;99.90
55091;DHT22;40985;53.180;5.800;2023-05-08T12:26:12;21.90;99.90
55091;DHT22;40985;53.180;5.800;2023-05-08T12:28:39;22.00;99.90
55091;DHT22;40985;53.180;5.800;2023-05-08T12:31:05;22.30;99.90
55091;DHT22;40985;53.180;5.800;2023-05-08T12:33:32;22.40;99.90
55091;DHT22;40985;53.180;5.800;2023-05-08T12:35:58;22.30;99.90
55091;DHT22;40985;53.180;5.800;2023-05-08T12:38:28;22.10;99.90
55091;DHT22;40985;53.180;5.800;2023-05-08T12:40:54;22.00;99.90
55091;DHT22;40985;53.180;5.800;2023-05-08T12:43:25;21.90;99.90
55091;DHT22;40985;53.180;5.800;2023-05-08T12:45:55;22.00;99.90
55091;DHT22;40985;53.180;5.800;2023-05-08T12:48:20;22.20;99.90
55091;DHT22;40985;53.180;5.800;2023-05-08T12:50:46;22.20;99.90
55091;DHT22;40985;53.180;5.800;2023-05-08T12:53:14;22.10;99.90
55091;DHT22;40985;53.180;5.800;2023-05-08T12:55:52;22.00;99.90
55091;DHT22;40985;53.180;5.800;2023-05-08T12:58:18;21.90;99.90
55091;DHT22;40985;53.180;5.800;2023-05-08T13:00:46;21.70;99.90
55091;DHT22;40985;53.180;5.800;2023-05-08T13:03:20;21.80;99.90
55091;DHT22;40985;53.180;5.800;2023-05-08T13:05:46;22.20;99.90
55091;DHT22;40985;53.180;5.800;2023-05-08T13:08:12;22.10;99.90
55091;DHT22;40985;53.180;5.800;2023-05-08T13:10:47;21.70;99.90
55091;DHT22;40985;53.180;5.800;2023-05-08T13:13:15;21.60;99.90
55091;DHT22;40985;53.180;5.800;2023-05-08T13:15:41;21.40;99.90
55091;DHT22;40985;53.180;5.800;2023-05-08T13:18:07;21.40;99.90
55091;DHT22;40985;53.180;5.800;2023-05-08T13:20:34;21.30;99.90
55091;DHT22;40985;53.180;5.800;2023-05-08T13:22:59;21.20;99.90
55091;DHT22;40985;53.180;5.800;2023-05-08T13:25:25;21.40;99.90
55091;DHT22;40985;53.180;5.800;2023-05-08T13:27:51;21.20;99.90
55091;DHT22;40985;53.180;5.800;2023-05-08T13:30:17;21.10;99.90
55091;DHT22;40985;53.180;5.800;2023-05-08T13:32:42;21.30;99.90
55091;DHT22;40985;53.180;5.800;2023-05-08T13:35:08;21.40;99.90
55091;DHT22;40985;53.180;5.800;2023-05-08T13:37:34;21.60;99.90
55091;DHT22;40985;53.180;5.800;2023-05-08T13:40:00;21.90;99.90
55091;DHT22;40985;53.180;5.800;2023-05-08T13:42:26;22.20;99.90
55091;DHT22;40985;53.180;5.800;2023-05-08T13:44:51;22.60;99.90
55091;DHT22;40985;53.180;5.800;2023-05-08T13:47:17;22.50;99.90
55091;DHT22;40985;53.180;5.800;2023-05-08T13:49:43;22.00;99.90
55091;DHT22;40985;53.180;5.800;2023-05-08T13:52:09;21.70;99.90
55091;DHT22;40985;53.180;5.800;2023-05-08T13:54:35;22.00;99.90
55091;DHT22;40985;53.180;5.800;2023-05-08T13:57:00;22.30;99.90
55091;DHT22;40985;53.180;5.800;2023-05-08T13:59:27;22.40;99.90
55091;DHT22;40985;53.180;5.800;2023-05-08T14:01:53;22.20;99.90
55091;DHT22;40985;53.180;5.800;2023-05-08T14:04:18;22.00;99.90
55091;DHT22;40985;53.180;5.800;2023-05-08T14:06:44;22.10;99.90
55091;DHT22;40985;53.180;5.800;2023-05-08T14:09:10;22.00;99.90
55091;DHT22;40985;53.180;5.800;2023-05-08T14:11:36;21.90;99.90
55091;DHT22;40985;53.180;5.800;2023-05-08T14:14:01;21.90;99.90
55091;DHT22;40985;53.180;5.800;2023-05-08T14:16:27;22.10;99.90
55091;DHT22;40985;53.180;5.800;2023-05-08T14:18:53;22.00;99.90
55091;DHT22;40985;53.180;5.800;2023-05-08T14:21:18;22.20;99.90
55091;DHT22;40985;53.180;5.800;2023-05-08T14:23:44;22.00;99.90
55091;DHT22;40985;53.180;5.800;2023-05-08T14:26:10;22.10;99.90
55091;DHT22;40985;53.180;5.800;2023-05-08T14:28:35;22.20;99.90
55091;DHT22;40985;53.180;5.800;2023-05-08T14:31:01;22.30;99.90
55091;DHT22;40985;53.180;5.800;2023-05-08T14:33:27;22.00;99.90
55091;DHT22;40985;53.180;5.800;2023-05-08T14:35:53;22.20;99.90
55091;DHT22;40985;53.180;5.800;2023-05-08T14:38:18;21.80;99.90
55091;DHT22;40985;53.180;5.800;2023-05-08T14:40:44;21.90;99.90
55091;DHT22;40985;53.180;5.800;2023-05-08T14:43:09;21.90;99.90
55091;DHT22;40985;53.180;5.800;2023-05-08T14:45:35;21.90;99.90
55091;DHT22;40985;53.180;5.800;2023-05-08T14:48:01;21.80;99.90
55091;DHT22;40985;53.180;5.800;2023-05-08T14:50:26;21.80;99.90
55091;DHT22;40985;53.180;5.800;2023-05-08T14:52:52;21.90;99.90
55091;DHT22;40985;53.180;5.800;2023-05-08T14:55:18;21.80;99.90
55091;DHT22;40985;53.180;5.800;2023-05-08T14:57:48;21.60;99.90
55091;DHT22;40985;53.180;5.800;2023-05-08T15:00:15;21.90;99.90
55091;DHT22;40985;53.180;5.800;2023-05-08T15:02:41;22.00;99.90
55091;DHT22;40985;53.180;5.800;2023-05-08T15:05:08;22.10;99.90
55091;DHT22;40985;53.180;5.800;2023-05-08T15:07:34;22.00;99.90
55091;DHT22;40985;53.180;5.800;2023-05-08T15:10:00;21.90;99.90
55091;DHT22;40985;53.180;5.800;2023-05-08T15:12:26;22.00;99.90
55091;DHT22;40985;53.180;5.800;2023-05-08T15:14:52;22.10;99.90
55091;DHT22;40985;53.180;5.800;2023-05-08T15:17:18;22.20;99.90
55091;DHT22;40985;53.180;5.800;2023-05-08T15:19:43;22.10;99.90
55091;DHT22;40985;53.180;5.800;2023-05-08T15:22:11;22.30;99.90
55091;DHT22;40985;53.180;5.800;2023-05-08T15:24:36;22.30;99.90
55091;DHT22;40985;53.180;5.800;2023-05-08T15:27:02;22.20;99.90
55091;DHT22;40985;53.180;5.800;2023-05-08T15:29:28;22.10;99.90
55091;DHT22;40985;53.180;5.800;2023-05-08T15:31:54;22.10;99.90
55091;DHT22;40985;53.180;5.800;2023-05-08T15:34:20;22.00;99.90
55091;DHT22;40985;53.180;5.800;2023-05-08T15:36:46;21.90;99.90
55091;DHT22;40985;53.180;5.800;2023-05-08T15:39:12;21.40;99.90
55091;DHT22;40985;53.180;5.800;2023-05-08T15:41:38;21.50;99.90
55091;DHT22;40985;53.180;5.800;2023-05-08T15:44:06;21.50;99.90
55091;DHT22;40985;53.180;5.800;2023-05-08T15:46:32;21.60;99.90
55091;DHT22;40985;53.180;5.800;2023-05-08T15:48:58;21.40;99.90
55091;DHT22;40985;53.180;5.800;2023-05-08T15:51:23;21.40;99.90
55091;DHT22;40985;53.180;5.800;2023-05-08T15:53:49;21.50;99.90
55091;DHT22;40985;53.180;5.800;2023-05-08T15:56:20;21.40;99.90
55091;DHT22;40985;53.180;5.800;2023-05-08T15:58:49;21.20;99.90
55091;DHT22;40985;53.180;5.800;2023-05-08T16:01:19;21.20;99.90
55091;DHT22;40985;53.180;5.800;2023-05-08T16:03:45;21.20;99.90
55091;DHT22;40985;53.180;5.800;2023-05-08T16:06:11;21.20;99.90
55091;DHT22;40985;53.180;5.800;2023-05-08T16:08:36;20.90;99.90
55091;DHT22;40985;53.180;5.800;2023-05-08T16:11:02;20.90;99.90
55091;DHT22;40985;53.180;5.800;2023-05-08T16:13:28;20.70;99.90
55091;DHT22;40985;53.180;5.800;2023-05-08T16:15:53;20.60;99.90
55091;DHT22;40985;53.180;5.800;2023-05-08T16:18:19;20.60;99.90
55091;DHT22;40985;53.180;5.800;2023-05-08T16:20:45;20.50;99.90
55091;DHT22;40985;53.180;5.800;2023-05-08T16:23:11;20.50;99.90
55091;DHT22;40985;53.180;5.800;2023-05-08T16:25:38;20.40;99.90